sensor_id;sensor_type;location;lat;lon;timestamp;pressure;altitude;pressure_sealevel;temperature;humidity
32083;BME280;18597;48.328;7.932;2023-04-25T00:01:32;98981.38;;;8.46;100.00
32083;BME280;18597;48.328;7.932;2023-04-25T00:04:00;98981.13;;;8.49;100.00
32083;BME280;18597;48.328;7.932;2023-04-25T00:06:26;98982.66;;;8.42;100.00
32083;BME280;18597;48.328;7.932;2023-04-25T00:08:53;98978.56;;;8.38;100.00
32083;BME280;18597;48.328;7.932;2023-04-25T00:11:19;98973.75;;;8.32;100.00
32083;BME280;18597;48.328;7.932;2023-04-25T00:13:45;98974.41;;;8.24;100.00
32083;BME280;18597;48.328;7.932;2023-04-25T00:16:12;98970.91;;;8.24;100.00
32083;BME280;18597;48.328;7.932;2023-04-25T00:18:41;98971.09;;;8.32;100.00
32083;BME280;18597;48.328;7.932;2023-04-25T00:21:07;98971.47;;;8.27;100.00
32083;BME280;18597;48.328;7.932;2023-04-25T00:23:33;98973.56;;;8.24;100.00
32083;BME280;18597;48.328;7.932;2023-04-25T00:26:02;98968.13;;;8.25;100.00
32083;BME280;18597;48.328;7.932;2023-04-25T00:28:28;98974.81;;;8.20;100.00
32083;BME280;18597;48.328;7.932;2023-04-25T00:30:54;98968.31;;;8.13;100.00
32083;BME280;18597;48.328;7.932;2023-04-25T00:33:20;98967.28;;;8.04;100.00
32083;BME280;18597;48.328;7.932;2023-04-25T00:35:46;98961.19;;;7.92;100.00
32083;BME280;18597;48.328;7.932;2023-04-25T00:38:12;98962.81;;;7.84;100.00
32083;BME280;18597;48.328;7.932;2023-04-25T00:40:38;98966.28;;;7.74;100.00
32083;BME280;18597;48.328;7.932;2023-04-25T00:43:04;98964.13;;;7.89;100.00
32083;BME280;18597;48.328;7.932;2023-04-25T00:45:30;98961.13;;;7.83;100.00
32083;BME280;18597;48.328;7.932;2023-04-25T00:47:56;98967.28;;;7.62;100.00
32083;BME280;18597;48.328;7.932;2023-04-25T00:50:23;98968.19;;;7.51;100.00
32083;BME280;18597;48.328;7.932;2023-04-25T00:52:49;98973.44;;;7.42;100.00
32083;BME280;18597;48.328;7.932;2023-04-25T00:55:15;98966.44;;;7.41;100.00
32083;BME280;18597;48.328;7.932;2023-04-25T00:57:42;98962.63;;;7.55;100.00
32083;BME280;18597;48.328;7.932;2023-04-25T01:00:09;98965.81;;;7.69;100.00
32083;BME280;18597;48.328;7.932;2023-04-25T01:02:36;98961.53;;;7.57;100.00
32083;BME280;18597;48.328;7.932;2023-04-25T01:05:03;98963.78;;;7.41;100.00
32083;BME280;18597;48.328;7.932;2023-04-25T01:07:29;98959.47;;;7.29;100.00
32083;BME280;18597;48.328;7.932;2023-04-25T01:09:55;98966.09;;;7.34;100.00
32083;BME280;18597;48.328;7.932;2023-04-25T01:12:22;98964.28;;;7.56;100.00
32083;BME280;18597;48.328;7.932;2023-04-25T01:14:48;98963.84;;;7.50;100.00
32083;BME280;18597;48.328;7.932;2023-04-25T01:17:15;98962.63;;;7.55;100.00
32083;BME280;18597;48.328;7.932;2023-04-25T01:19:41;98961.41;;;7.59;100.00
32083;BME280;18597;48.328;7.932;2023-04-25T01:22:07;98957.28;;;7.55;100.00
32083;BME280;18597;48.328;7.932;2023-04-25T01:24:35;98960.41;;;7.60;100.00
32083;BME280;18597;48.328;7.932;2023-04-25T01:27:02;98954.84;;;7.63;100.00
32083;BME280;18597;48.328;7.932;2023-04-25T01:29:29;98955.78;;;7.73;100.00
32083;BME280;18597;48.328;7.932;2023-04-25T01:31:55;98960.47;;;7.69;100.00
32083;BME280;18597;48.328;7.932;2023-04-25T01:34:24;98957.19;;;7.77;100.00
32083;BME280;18597;48.328;7.932;2023-04-25T01:36:50;98955.50;;;7.76;100.00
32083;BME280;18597;48.328;7.932;2023-04-25T01:39:18;98954.41;;;7.78;100.00
32083;BME280;18597;48.328;7.932;2023-04-25T01:41:46;98950.63;;;7.81;100.00
32083;BME280;18597;48.328;7.932;2023-04-25T01:44:14;98940.91;;;7.91;100.00
32083;BME280;18597;48.328;7.932;2023-04-25T01:46:40;98940.75;;;7.93;100.00
32083;BME280;18597;48.328;7.932;2023-04-25T01:49:06;98935.72;;;7.69;100.00
32083;BME280;18597;48.328;7.932;2023-04-25T01:51:33;98938.00;;;7.53;100.00
32083;BME280;18597;48.328;7.932;2023-04-25T01:54:00;98947.56;;;7.44;100.00
32083;BME280;18597;48.328;7.932;2023-04-25T01:56:30;98948.41;;;7.44;100.00
32083;BME280;18597;48.328;7.932;2023-04-25T01:58:57;98947.44;;;7.45;100.00
32083;BME280;18597;48.328;7.932;2023-04-25T02:01:23;98942.84;;;7.47;100.00
32083;BME280;18597;48.328;7.932;2023-04-25T02:03:49;98938.03;;;7.62;100.00
32083;BME280;18597;48.328;7.932;2023-04-25T02:06:15;98937.84;;;7.54;100.00
32083;BME280;18597;48.328;7.932;2023-04-25T02:08:41;98934.16;;;7.45;100.00
32083;BME280;18597;48.328;7.932;2023-04-25T02:11:07;98934.72;;;7.28;100.00
32083;BME280;18597;48.328;7.932;2023-04-25T02:13:33;98934.47;;;7.31;100.00
32083;BME280;18597;48.328;7.932;2023-04-25T02:15:58;98932.38;;;7.03;100.00
32083;BME280;18597;48.328;7.932;2023-04-25T02:18:24;98930.13;;;6.87;100.00
32083;BME280;18597;48.328;7.932;2023-04-25T02:20:52;98932.22;;;6.72;100.00
32083;BME280;18597;48.328;7.932;2023-04-25T02:23:17;98931.56;;;6.59;100.00
32083;BME280;18597;48.328;7.932;2023-04-25T02:25:44;98936.84;;;6.59;100.00
32083;BME280;18597;48.328;7.932;2023-04-25T02:28:10;98941.19;;;6.49;100.00
32083;BME280;18597;48.328;7.932;2023-04-25T02:30:36;98929.75;;;6.48;100.00
32083;BME280;18597;48.328;7.932;2023-04-25T02:33:02;98924.69;;;6.45;100.00
32083;BME280;18597;48.328;7.932;2023-04-25T02:35:28;98931.31;;;6.39;100.00
32083;BME280;18597;48.328;7.932;2023-04-25T02:37:54;98930.53;;;6.71;100.00
32083;BME280;18597;48.328;7.932;2023-04-25T02:40:20;98916.81;;;6.66;100.00
32083;BME280;18597;48.328;7.932;2023-04-25T02:42:45;98919.00;;;6.61;100.00
32083;BME280;18597;48.328;7.932;2023-04-25T02:45:12;98919.09;;;6.71;100.00
32083;BME280;18597;48.328;7.932;2023-04-25T02:47:37;98920.53;;;6.75;100.00
32083;BME280;18597;48.328;7.932;2023-04-25T02:50:04;98912.41;;;6.87;100.00
32083;BME280;18597;48.328;7.932;2023-04-25T02:52:30;98914.22;;;6.87;100.00
32083;BME280;18597;48.328;7.932;2023-04-25T02:54:56;98915.66;;;6.91;100.00
32083;BME280;18597;48.328;7.932;2023-04-25T02:57:22;98907.78;;;7.01;100.00
32083;BME280;18597;48.328;7.932;2023-04-25T02:59:47;98904.41;;;6.99;100.00
32083;BME280;18597;48.328;7.932;2023-04-25T03:02:13;98910.44;;;7.01;100.00
32083;BME280;18597;48.328;7.932;2023-04-25T03:04:39;98911.63;;;7.08;100.00
32083;BME280;18597;48.328;7.932;2023-04-25T03:07:05;98922.66;;;7.24;100.00
32083;BME280;18597;48.328;7.932;2023-04-25T03:09:31;98926.28;;;7.23;100.00
32083;BME280;18597;48.328;7.932;2023-04-25T03:11:57;98945.16;;;7.20;100.00
32083;BME280;18597;48.328;7.932;2023-04-25T03:14:23;98932.94;;;7.17;100.00
32083;BME280;18597;48.328;7.932;2023-04-25T03:16:49;98934.31;;;7.12;100.00
32083;BME280;18597;48.328;7.932;2023-04-25T03:19:14;98934.59;;;7.30;100.00
32083;BME280;18597;48.328;7.932;2023-04-25T03:21:43;98927.56;;;7.08;100.00
32083;BME280;18597;48.328;7.932;2023-04-25T03:24:09;98928.88;;;7.02;100.00
32083;BME280;18597;48.328;7.932;2023-04-25T03:26:36;98911.31;;;7.22;100.00
32083;BME280;18597;48.328;7.932;2023-04-25T03:29:02;98910.41;;;7.33;100.00
32083;BME280;18597;48.328;7.932;2023-04-25T03:31:28;98898.09;;;7.32;100.00
32083;BME280;18597;48.328;7.932;2023-04-25T03:33:53;98899.97;;;7.20;100.00
32083;BME280;18597;48.328;7.932;2023-04-25T03:36:19;98891.72;;;7.02;100.00
32083;BME280;18597;48.328;7.932;2023-04-25T03:38:45;98888.97;;;6.92;100.00
32083;BME280;18597;48.328;7.932;2023-04-25T03:41:11;98882.56;;;6.95;100.00
32083;BME280;18597;48.328;7.932;2023-04-25T03:43:37;98884.00;;;6.99;100.00
32083;BME280;18597;48.328;7.932;2023-04-25T03:46:03;98885.19;;;7.06;100.00
32083;BME280;18597;48.328;7.932;2023-04-25T03:48:29;98887.84;;;7.06;100.00
32083;BME280;18597;48.328;7.932;2023-04-25T03:50:55;98891.59;;;7.04;100.00
32083;BME280;18597;48.328;7.932;2023-04-25T03:53:21;98889.38;;;7.09;100.00
32083;BME280;18597;48.328;7.932;2023-04-25T03:55:46;98890.63;;;7.05;100.00
32083;BME280;18597;48.328;7.932;2023-04-25T03:58:12;98879.16;;;7.04;100.00
32083;BME280;18597;48.328;7.932;2023-04-25T04:00:38;98881.44;;;7.09;100.00
32083;BME280;18597;48.328;7.932;2023-04-25T04:03:04;98874.09;;;7.01;100.00
32083;BME280;18597;48.328;7.932;2023-04-25T04:05:30;98878.63;;;6.89;100.00
32083;BME280;18597;48.328;7.932;2023-04-25T04:07:56;98883.19;;;6.87;100.00
32083;BME280;18597;48.328;7.932;2023-04-25T04:10:23;98874.91;;;6.81;100.00
32083;BME280;18597;48.328;7.932;2023-04-25T04:12:49;98873.59;;;6.75;100.00
32083;BME280;18597;48.328;7.932;2023-04-25T04:15:15;98875.78;;;6.70;100.00
32083;BME280;18597;48.328;7.932;2023-04-25T04:17:40;98872.16;;;6.71;100.00
32083;BME280;18597;48.328;7.932;2023-04-25T04:20:07;98870.09;;;6.75;100.00
32083;BME280;18597;48.328;7.932;2023-04-25T04:22:34;98865.66;;;6.64;100.00
32083;BME280;18597;48.328;7.932;2023-04-25T04:25:00;98869.78;;;6.57;100.00
32083;BME280;18597;48.328;7.932;2023-04-25T04:27:26;98865.56;;;6.65;100.00
32083;BME280;18597;48.328;7.932;2023-04-25T04:29:54;98876.28;;;6.64;100.00
32083;BME280;18597;48.328;7.932;2023-04-25T04:32:20;98877.88;;;6.55;100.00
32083;BME280;18597;48.328;7.932;2023-04-25T04:34:46;98881.34;;;6.67;100.00
32083;BME280;18597;48.328;7.932;2023-04-25T04:37:13;98879.81;;;6.85;100.00
32083;BME280;18597;48.328;7.932;2023-04-25T04:39:38;98879.81;;;6.85;100.00
32083;BME280;18597;48.328;7.932;2023-04-25T04:42:04;98878.50;;;6.91;100.00
32083;BME280;18597;48.328;7.932;2023-04-25T04:44:31;98884.13;;;6.98;100.00
32083;BME280;18597;48.328;7.932;2023-04-25T04:46:59;98884.56;;;7.14;100.00
32083;BME280;18597;48.328;7.932;2023-04-25T04:49:24;98878.53;;;7.12;100.00
32083;BME280;18597;48.328;7.932;2023-04-25T04:51:51;98884.63;;;7.23;100.00
32083;BME280;18597;48.328;7.932;2023-04-25T04:54:16;98889.59;;;7.17;100.00
32083;BME280;18597;48.328;7.932;2023-04-25T04:56:42;98903.84;;;7.16;100.00
32083;BME280;18597;48.328;7.932;2023-04-25T04:59:09;98891.34;;;7.07;100.00
32083;BME280;18597;48.328;7.932;2023-04-25T05:01:35;98885.38;;;7.14;100.00
32083;BME280;18597;48.328;7.932;2023-04-25T05:04:01;98885.06;;;7.08;100.00
32083;BME280;18597;48.328;7.932;2023-04-25T05:06:28;98893.16;;;7.06;100.00
32083;BME280;18597;48.328;7.932;2023-04-25T05:08:55;98889.16;;;7.12;100.00
32083;BME280;18597;48.328;7.932;2023-04-25T05:11:23;98887.91;;;7.16;100.00
32083;BME280;18597;48.328;7.932;2023-04-25T05:13:52;98887.03;;;7.27;100.00
32083;BME280;18597;48.328;7.932;2023-04-25T05:16:18;98884.44;;;7.36;100.00
32083;BME280;18597;48.328;7.932;2023-04-25T05:18:48;98887.81;;;7.38;100.00
32083;BME280;18597;48.328;7.932;2023-04-25T05:21:13;98884.78;;;7.43;100.00
32083;BME280;18597;48.328;7.932;2023-04-25T05:23:39;98882.63;;;7.58;100.00
32083;BME280;18597;48.328;7.932;2023-04-25T05:26:05;98876.34;;;7.59;100.00
32083;BME280;18597;48.328;7.932;2023-04-25T05:28:31;98878.81;;;7.50;100.00
32083;BME280;18597;48.328;7.932;2023-04-25T05:30:57;98880.50;;;7.51;100.00
32083;BME280;18597;48.328;7.932;2023-04-25T05:33:23;98890.97;;;7.53;100.00
32083;BME280;18597;48.328;7.932;2023-04-25T05:35:49;98893.25;;;7.58;100.00
32083;BME280;18597;48.328;7.932;2023-04-25T05:38:15;98893.59;;;7.64;100.00
32083;BME280;18597;48.328;7.932;2023-04-25T05:40:41;98888.66;;;7.60;100.00
32083;BME280;18597;48.328;7.932;2023-04-25T05:43:07;98895.28;;;7.65;100.00
32083;BME280;18597;48.328;7.932;2023-04-25T05:45:33;98897.09;;;7.65;100.00
32083;BME280;18597;48.328;7.932;2023-04-25T05:47:59;98904.09;;;7.66;100.00
32083;BME280;18597;48.328;7.932;2023-04-25T05:50:25;98902.97;;;7.68;100.00
32083;BME280;18597;48.328;7.932;2023-04-25T05:52:51;98904.09;;;7.66;100.00
32083;BME280;18597;48.328;7.932;2023-04-25T05:55:17;98916.78;;;7.62;100.00
32083;BME280;18597;48.328;7.932;2023-04-25T05:57:43;98905.56;;;7.59;100.00
32083;BME280;18597;48.328;7.932;2023-04-25T06:00:12;98920.19;;;7.64;100.00
32083;BME280;18597;48.328;7.932;2023-04-25T06:02:40;98925.22;;;7.67;100.00
32083;BME280;18597;48.328;7.932;2023-04-25T06:05:07;98933.19;;;7.67;100.00
32083;BME280;18597;48.328;7.932;2023-04-25T06:07:32;98928.16;;;7.64;100.00
32083;BME280;18597;48.328;7.932;2023-04-25T06:09:59;98940.97;;;7.59;100.00
32083;BME280;18597;48.328;7.932;2023-04-25T06:12:26;98944.19;;;7.63;100.00
32083;BME280;18597;48.328;7.932;2023-04-25T06:14:52;98948.63;;;7.53;100.00
32083;BME280;18597;48.328;7.932;2023-04-25T06:17:18;98955.88;;;7.50;100.00
32083;BME280;18597;48.328;7.932;2023-04-25T06:19:44;98957.84;;;7.48;100.00
32083;BME280;18597;48.328;7.932;2023-04-25T06:22:10;98963.66;;;7.42;100.00
32083;BME280;18597;48.328;7.932;2023-04-25T06:24:36;98959.69;;;7.37;100.00
32083;BME280;18597;48.328;7.932;2023-04-25T06:27:02;98962.13;;;7.29;100.00
32083;BME280;18597;48.328;7.932;2023-04-25T06:29:28;98969.75;;;7.22;100.00
32083;BME280;18597;48.328;7.932;2023-04-25T06:31:53;98966.75;;;7.15;100.00
32083;BME280;18597;48.328;7.932;2023-04-25T06:34:19;98967.25;;;7.20;100.00
32083;BME280;18597;48.328;7.932;2023-04-25T06:36:46;98973.88;;;7.26;100.00
32083;BME280;18597;48.328;7.932;2023-04-25T06:39:12;98984.28;;;7.18;100.00
32083;BME280;18597;48.328;7.932;2023-04-25T06:41:37;98985.84;;;7.09;100.00
32083;BME280;18597;48.328;7.932;2023-04-25T06:44:03;98982.56;;;7.17;100.00
32083;BME280;18597;48.328;7.932;2023-04-25T06:46:29;98991.63;;;7.14;100.00
32083;BME280;18597;48.328;7.932;2023-04-25T06:48:55;98999.03;;;7.11;100.00
32083;BME280;18597;48.328;7.932;2023-04-25T06:51:21;98989.59;;;7.07;100.00
32083;BME280;18597;48.328;7.932;2023-04-25T06:53:47;98992.25;;;7.07;100.00
32083;BME280;18597;48.328;7.932;2023-04-25T06:56:12;98990.59;;;7.06;100.00
32083;BME280;18597;48.328;7.932;2023-04-25T06:58:38;98992.97;;;7.09;100.00
32083;BME280;18597;48.328;7.932;2023-04-25T07:01:04;98999.25;;;7.19;100.00
32083;BME280;18597;48.328;7.932;2023-04-25T07:03:30;99006.25;;;7.20;100.00
32083;BME280;18597;48.328;7.932;2023-04-25T07:05:56;99006.25;;;7.20;100.00
32083;BME280;18597;48.328;7.932;2023-04-25T07:08:21;99012.75;;;7.27;100.00
32083;BME280;18597;48.328;7.932;2023-04-25T07:10:47;99020.50;;;7.19;100.00
32083;BME280;18597;48.328;7.932;2023-04-25T07:13:13;99019.13;;;7.24;100.00
32083;BME280;18597;48.328;7.932;2023-04-25T07:15:39;99026.78;;;7.18;100.00
32083;BME280;18597;48.328;7.932;2023-04-25T07:18:05;99024.84;;;7.20;100.00
32083;BME280;18597;48.328;7.932;2023-04-25T07:20:30;99023.66;;;7.13;100.00
32083;BME280;18597;48.328;7.932;2023-04-25T07:22:57;99028.69;;;7.16;100.00
32083;BME280;18597;48.328;7.932;2023-04-25T07:25:23;99038.00;;;7.21;100.00
32083;BME280;18597;48.328;7.932;2023-04-25T07:27:49;99029.53;;;7.28;100.00
32083;BME280;18597;48.328;7.932;2023-04-25T07:30:15;99031.91;;;7.42;100.00
32083;BME280;18597;48.328;7.932;2023-04-25T07:32:41;99036.38;;;7.41;100.00
32083;BME280;18597;48.328;7.932;2023-04-25T07:35:07;99032.34;;;7.47;100.00
32083;BME280;18597;48.328;7.932;2023-04-25T07:37:34;99053.50;;;7.48;100.00
32083;BME280;18597;48.328;7.932;2023-04-25T07:40:02;99054.94;;;7.53;100.00
32083;BME280;18597;48.328;7.932;2023-04-25T07:42:29;99061.81;;;7.55;100.00
32083;BME280;18597;48.328;7.932;2023-04-25T07:44:55;99059.75;;;7.59;100.00
32083;BME280;18597;48.328;7.932;2023-04-25T07:47:21;99064.84;;;7.50;100.00
32083;BME280;18597;48.328;7.932;2023-04-25T07:49:47;99068.22;;;7.53;100.00
32083;BME280;18597;48.328;7.932;2023-04-25T07:52:13;99072.34;;;7.77;100.00
32083;BME280;18597;48.328;7.932;2023-04-25T07:54:39;99075.81;;;7.89;100.00
32083;BME280;18597;48.328;7.932;2023-04-25T07:57:05;99079.72;;;8.06;100.00
32083;BME280;18597;48.328;7.932;2023-04-25T07:59:32;99083.22;;;8.06;100.00
32083;BME280;18597;48.328;7.932;2023-04-25T08:01:58;99094.81;;;8.17;100.00
32083;BME280;18597;48.328;7.932;2023-04-25T08:04:24;99093.84;;;8.18;100.00
32083;BME280;18597;48.328;7.932;2023-04-25T08:06:51;99094.22;;;8.13;100.00
32083;BME280;18597;48.328;7.932;2023-04-25T08:09:19;99099.84;;;8.20;100.00
32083;BME280;18597;48.328;7.932;2023-04-25T08:11:45;99100.56;;;8.22;100.00
32083;BME280;18597;48.328;7.932;2023-04-25T08:14:12;99108.56;;;8.22;100.00
32083;BME280;18597;48.328;7.932;2023-04-25T08:16:39;99118.97;;;8.25;100.00
32083;BME280;18597;48.328;7.932;2023-04-25T08:19:05;99116.13;;;8.38;100.00
32083;BME280;18597;48.328;7.932;2023-04-25T08:21:31;99120.00;;;8.33;100.00
32083;BME280;18597;48.328;7.932;2023-04-25T08:23:58;99131.97;;;8.39;100.00
32083;BME280;18597;48.328;7.932;2023-04-25T08:26:24;99133.84;;;8.48;100.00
32083;BME280;18597;48.328;7.932;2023-04-25T08:28:51;99139.09;;;8.59;100.00
32083;BME280;18597;48.328;7.932;2023-04-25T08:31:17;99142.59;;;8.60;100.00
32083;BME280;18597;48.328;7.932;2023-04-25T08:33:43;99144.63;;;8.68;100.00
32083;BME280;18597;48.328;7.932;2023-04-25T08:36:10;99147.16;;;8.69;100.00
32083;BME280;18597;48.328;7.932;2023-04-25T08:38:36;99159.56;;;8.80;100.00
32083;BME280;18597;48.328;7.932;2023-04-25T08:41:02;99161.75;;;8.75;100.00
32083;BME280;18597;48.328;7.932;2023-04-25T08:43:30;99162.56;;;8.66;100.00
32083;BME280;18597;48.328;7.932;2023-04-25T08:46:00;99167.03;;;8.65;100.00
32083;BME280;18597;48.328;7.932;2023-04-25T08:48:27;99171.50;;;8.65;100.00
32083;BME280;18597;48.328;7.932;2023-04-25T08:50:56;99177.03;;;8.94;100.00
32083;BME280;18597;48.328;7.932;2023-04-25T08:53:26;99185.00;;;9.14;100.00
32083;BME280;18597;48.328;7.932;2023-04-25T08:55:55;99193.28;;;9.21;100.00
32083;BME280;18597;48.328;7.932;2023-04-25T08:58:21;99198.38;;;9.34;100.00
32083;BME280;18597;48.328;7.932;2023-04-25T09:00:48;99194.91;;;9.43;100.00
32083;BME280;18597;48.328;7.932;2023-04-25T09:03:15;99190.66;;;9.31;100.00
32083;BME280;18597;48.328;7.932;2023-04-25T09:05:42;99194.22;;;9.41;100.00
32083;BME280;18597;48.328;7.932;2023-04-25T09:08:08;99203.19;;;9.40;100.00
32083;BME280;18597;48.328;7.932;2023-04-25T09:10:34;99209.25;;;9.52;100.00
32083;BME280;18597;48.328;7.932;2023-04-25T09:13:08;99220.22;;;9.58;100.00
32083;BME280;18597;48.328;7.932;2023-04-25T09:15:49;99211.66;;;9.55;100.00
32083;BME280;18597;48.328;7.932;2023-04-25T09:18:27;99221.03;;;9.49;100.00
32083;BME280;18597;48.328;7.932;2023-04-25T09:20:58;99216.97;;;9.45;100.00
32083;BME280;18597;48.328;7.932;2023-04-25T09:23:30;99223.00;;;9.16;100.00
32083;BME280;18597;48.328;7.932;2023-04-25T09:25:56;99222.13;;;8.85;100.00
32083;BME280;18597;48.328;7.932;2023-04-25T09:28:25;99227.63;;;8.73;100.00
32083;BME280;18597;48.328;7.932;2023-04-25T09:30:56;99227.72;;;8.61;100.00
32083;BME280;18597;48.328;7.932;2023-04-25T09:33:30;99234.13;;;8.59;100.00
32083;BME280;18597;48.328;7.932;2023-04-25T09:36:07;99229.81;;;8.68;100.00
32083;BME280;18597;48.328;7.932;2023-04-25T09:38:41;99229.06;;;8.77;100.00
32083;BME280;18597;48.328;7.932;2023-04-25T09:41:09;99235.22;;;8.98;100.00
32083;BME280;18597;48.328;7.932;2023-04-25T09:43:36;99237.88;;;9.19;100.00
32083;BME280;18597;48.328;7.932;2023-04-25T09:46:08;99234.25;;;9.51;100.00
32083;BME280;18597;48.328;7.932;2023-04-25T09:48:35;99233.53;;;9.89;100.00
32083;BME280;18597;48.328;7.932;2023-04-25T09:51:12;99239.09;;;10.26;100.00
32083;BME280;18597;48.328;7.932;2023-04-25T09:53:43;99235.34;;;10.48;100.00
32083;BME280;18597;48.328;7.932;2023-04-25T09:56:11;99237.00;;;10.88;100.00
32083;BME280;18597;48.328;7.932;2023-04-25T09:58:40;99244.13;;;11.16;100.00
32083;BME280;18597;48.328;7.932;2023-04-25T10:01:08;99250.44;;;11.25;100.00
32083;BME280;18597;48.328;7.932;2023-04-25T10:03:38;99249.34;;;11.64;100.00
32083;BME280;18597;48.328;7.932;2023-04-25T10:06:15;99249.78;;;12.15;100.00
32083;BME280;18597;48.328;7.932;2023-04-25T10:08:44;99248.59;;;12.45;100.00
32083;BME280;18597;48.328;7.932;2023-04-25T10:11:11;99247.66;;;13.08;100.00
32083;BME280;18597;48.328;7.932;2023-04-25T10:13:40;99249.50;;;13.59;100.00
32083;BME280;18597;48.328;7.932;2023-04-25T10:16:07;99255.06;;;13.31;87.55
32083;BME280;18597;48.328;7.932;2023-04-25T10:18:33;99255.94;;;13.40;89.69
32083;BME280;18597;48.328;7.932;2023-04-25T10:21:02;99250.25;;;12.99;92.07
32083;BME280;18597;48.328;7.932;2023-04-25T10:23:31;99251.41;;;13.75;99.94
32083;BME280;18597;48.328;7.932;2023-04-25T10:25:58;99252.19;;;12.54;90.48
32083;BME280;18597;48.328;7.932;2023-04-25T10:28:24;99241.06;;;12.84;100.00
32083;BME280;18597;48.328;7.932;2023-04-25T10:33:34;99240.56;;;13.50;100.00
32083;BME280;18597;48.328;7.932;2023-04-25T10:36:12;99247.91;;;13.74;100.00
32083;BME280;18597;48.328;7.932;2023-04-25T10:38:38;99244.84;;;14.03;100.00
32083;BME280;18597;48.328;7.932;2023-04-25T10:41:07;99241.66;;;13.66;96.93
32083;BME280;18597;48.328;7.932;2023-04-25T10:43:43;99243.50;;;14.07;100.00
32083;BME280;18597;48.328;7.932;2023-04-25T10:46:24;99230.78;;;14.26;96.30
32083;BME280;18597;48.328;7.932;2023-04-25T10:48:55;99229.53;;;14.54;100.00
32083;BME280;18597;48.328;7.932;2023-04-25T10:54:04;99228.03;;;14.01;96.76
32083;BME280;18597;48.328;7.932;2023-04-25T10:59:16;99224.16;;;14.70;100.00
32083;BME280;18597;48.328;7.932;2023-04-25T11:01:45;99227.81;;;15.43;100.00
32083;BME280;18597;48.328;7.932;2023-04-25T11:04:32;99222.72;;;16.34;100.00
32083;BME280;18597;48.328;7.932;2023-04-25T11:09:39;99224.38;;;16.89;81.33
32083;BME280;18597;48.328;7.932;2023-04-25T11:12:08;99230.66;;;16.59;84.48
32083;BME280;18597;48.328;7.932;2023-04-25T11:14:35;99232.00;;;16.01;83.65
32083;BME280;18597;48.328;7.932;2023-04-25T11:17:01;99238.03;;;16.11;73.68
32083;BME280;18597;48.328;7.932;2023-04-25T11:19:30;99230.22;;;16.16;80.55
32083;BME280;18597;48.328;7.932;2023-04-25T11:21:57;99228.16;;;16.26;71.14
32083;BME280;18597;48.328;7.932;2023-04-25T11:24:33;99223.66;;;16.19;76.59
32083;BME280;18597;48.328;7.932;2023-04-25T11:27:02;99225.88;;;15.76;77.09
32083;BME280;18597;48.328;7.932;2023-04-25T11:29:30;99225.44;;;15.64;79.49
32083;BME280;18597;48.328;7.932;2023-04-25T11:31:56;99226.13;;;15.50;86.60
32083;BME280;18597;48.328;7.932;2023-04-25T11:34:25;99230.38;;;15.28;85.19
32083;BME280;18597;48.328;7.932;2023-04-25T11:36:52;99222.16;;;14.97;80.62
32083;BME280;18597;48.328;7.932;2023-04-25T11:39:19;99225.19;;;14.53;74.74
32083;BME280;18597;48.328;7.932;2023-04-25T11:41:46;99232.97;;;14.14;81.76
32083;BME280;18597;48.328;7.932;2023-04-25T11:44:16;99234.34;;;13.76;81.62
32083;BME280;18597;48.328;7.932;2023-04-25T11:46:43;99243.84;;;12.92;92.82
32083;BME280;18597;48.328;7.932;2023-04-25T11:49:09;99264.78;;;11.71;100.00
32083;BME280;18597;48.328;7.932;2023-04-25T11:51:40;99270.91;;;10.87;100.00
32083;BME280;18597;48.328;7.932;2023-04-25T11:54:06;99279.06;;;10.47;100.00
32083;BME280;18597;48.328;7.932;2023-04-25T11:56:33;99265.31;;;10.11;100.00
32083;BME280;18597;48.328;7.932;2023-04-25T11:59:02;99267.44;;;10.08;100.00
32083;BME280;18597;48.328;7.932;2023-04-25T12:01:38;99268.22;;;10.29;100.00
32083;BME280;18597;48.328;7.932;2023-04-25T12:06:51;99253.91;;;10.69;100.00
32083;BME280;18597;48.328;7.932;2023-04-25T12:09:28;99253.19;;;10.86;100.00
32083;BME280;18597;48.328;7.932;2023-04-25T12:11:56;99258.81;;;10.93;100.00
32083;BME280;18597;48.328;7.932;2023-04-25T12:14:27;99256.28;;;10.81;100.00
32083;BME280;18597;48.328;7.932;2023-04-25T12:16:56;99258.25;;;10.70;100.00
32083;BME280;18597;48.328;7.932;2023-04-25T12:19:23;99255.44;;;10.71;100.00
32083;BME280;18597;48.328;7.932;2023-04-25T12:21:50;99262.88;;;10.77;100.00
32083;BME280;18597;48.328;7.932;2023-04-25T12:24:23;99258.09;;;10.71;100.00
32083;BME280;18597;48.328;7.932;2023-04-25T12:27:02;99262.75;;;10.60;100.00
32083;BME280;18597;48.328;7.932;2023-04-25T12:29:31;99257.97;;;10.63;100.00
32083;BME280;18597;48.328;7.932;2023-04-25T12:31:58;99260.94;;;10.89;100.00
32083;BME280;18597;48.328;7.932;2023-04-25T12:34:24;99256.38;;;11.19;100.00
32083;BME280;18597;48.328;7.932;2023-04-25T12:36:52;99261.94;;;11.45;100.00
32083;BME280;18597;48.328;7.932;2023-04-25T12:39:21;99246.97;;;11.52;100.00
32083;BME280;18597;48.328;7.932;2023-04-25T12:41:49;99256.53;;;11.64;100.00
32083;BME280;18597;48.328;7.932;2023-04-25T12:44:15;99255.66;;;12.01;100.00
32083;BME280;18597;48.328;7.932;2023-04-25T12:46:42;99246.16;;;12.34;100.00
32083;BME280;18597;48.328;7.932;2023-04-25T12:49:08;99252.22;;;12.71;100.00
32083;BME280;18597;48.328;7.932;2023-04-25T12:51:35;99261.13;;;13.16;100.00
32083;BME280;18597;48.328;7.932;2023-04-25T12:54:03;99262.97;;;13.67;100.00
32083;BME280;18597;48.328;7.932;2023-04-25T12:56:30;99257.34;;;14.29;100.00
32083;BME280;18597;48.328;7.932;2023-04-25T12:58:56;99262.50;;;15.05;100.00
32083;BME280;18597;48.328;7.932;2023-04-25T13:01:23;99269.84;;;15.68;100.00
32083;BME280;18597;48.328;7.932;2023-04-25T13:03:49;99268.38;;;16.05;97.68
32083;BME280;18597;48.328;7.932;2023-04-25T13:06:17;99257.13;;;16.32;98.16
32083;BME280;18597;48.328;7.932;2023-04-25T13:08:43;99263.19;;;16.57;91.00
32083;BME280;18597;48.328;7.932;2023-04-25T13:11:09;99258.09;;;16.94;88.86